sensor_id;sensor_type;location;lat;lon;timestamp;pressure;altitude;pressure_sealevel;temperature;humidity
4133;BME280;2080;51.038;7.008;2023-04-26T00:01:00;76864.22;;;-142.53;78.27
4133;BME280;2080;51.038;7.008;2023-04-26T00:03:30;76875.88;;;-142.53;78.84
4133;BME280;2080;51.038;7.008;2023-04-26T00:05:56;76879.78;;;-142.53;78.88
4133;BME280;2080;51.038;7.008;2023-04-26T00:08:24;76916.69;;;-142.53;79.99
4133;BME280;2080;51.038;7.008;2023-04-26T00:10:49;76926.41;;;-142.53;80.19
4133;BME280;2080;51.038;7.008;2023-04-26T00:13:17;76926.41;;;-142.53;80.50
4133;BME280;2080;51.038;7.008;2023-04-26T00:15:45;76941.94;;;-142.53;81.10
4133;BME280;2080;51.038;7.008;2023-04-26T00:18:10;76938.03;;;-142.53;80.83
4133;BME280;2080;51.038;7.008;2023-04-26T00:20:36;76934.16;;;-142.53;81.76
4133;BME280;2080;51.038;7.008;2023-04-26T00:23:02;76926.41;;;-142.53;81.48
4133;BME280;2080;51.038;7.008;2023-04-26T00:25:28;76934.16;;;-142.53;81.69
4133;BME280;2080;51.038;7.008;2023-04-26T00:27:56;76938.03;;;-142.53;82.65
4133;BME280;2080;51.038;7.008;2023-04-26T00:30:22;76953.59;;;-142.53;83.88
4133;BME280;2080;51.038;7.008;2023-04-26T00:32:47;76941.94;;;-142.53;82.91
4133;BME280;2080;51.038;7.008;2023-04-26T00:35:12;76941.94;;;-142.53;83.13
4133;BME280;2080;51.038;7.008;2023-04-26T00:37:38;76943.88;;;-142.53;83.46
4133;BME280;2080;51.038;7.008;2023-04-26T00:40:03;76955.53;;;-142.53;83.37
4133;BME280;2080;51.038;7.008;2023-04-26T00:42:30;76936.09;;;-142.53;83.08
4133;BME280;2080;51.038;7.008;2023-04-26T00:44:55;76957.47;;;-142.53;83.21
4133;BME280;2080;51.038;7.008;2023-04-26T00:47:22;76949.69;;;-142.53;83.91
4133;BME280;2080;51.038;7.008;2023-04-26T00:49:48;76932.22;;;-142.53;82.76
4133;BME280;2080;51.038;7.008;2023-04-26T00:52:16;76926.41;;;-142.53;82.91
4133;BME280;2080;51.038;7.008;2023-04-26T00:54:44;76918.63;;;-142.53;82.63
4133;BME280;2080;51.038;7.008;2023-04-26T00:57:11;76924.44;;;-142.53;82.38
4133;BME280;2080;51.038;7.008;2023-04-26T00:59:36;76949.69;;;-142.53;82.68
4133;BME280;2080;51.038;7.008;2023-04-26T01:02:02;76938.03;;;-142.53;82.86
4133;BME280;2080;51.038;7.008;2023-04-26T01:04:28;76976.91;;;-142.53;83.07
4133;BME280;2080;51.038;7.008;2023-04-26T01:06:57;77011.88;;;-142.53;84.69
4133;BME280;2080;51.038;7.008;2023-04-26T01:09:24;77015.75;;;-142.53;85.83
4133;BME280;2080;51.038;7.008;2023-04-26T01:11:51;77011.88;;;-142.53;85.55
4133;BME280;2080;51.038;7.008;2023-04-26T01:14:17;77004.09;;;-142.53;85.54
4133;BME280;2080;51.038;7.008;2023-04-26T01:16:46;77031.28;;;-142.53;85.71
4133;BME280;2080;51.038;7.008;2023-04-26T01:19:12;77035.19;;;-142.53;86.55
4133;BME280;2080;51.038;7.008;2023-04-26T01:21:38;77035.19;;;-142.53;86.89
4133;BME280;2080;51.038;7.008;2023-04-26T01:24:04;77046.84;;;-142.53;87.30
4133;BME280;2080;51.038;7.008;2023-04-26T01:26:32;77037.13;;;-142.53;86.33
4133;BME280;2080;51.038;7.008;2023-04-26T01:29:00;77011.88;;;-142.53;85.10
4133;BME280;2080;51.038;7.008;2023-04-26T01:31:27;77017.69;;;-142.53;84.97
4133;BME280;2080;51.038;7.008;2023-04-26T01:33:53;77011.88;;;-142.53;84.65
4133;BME280;2080;51.038;7.008;2023-04-26T01:36:20;77031.28;;;-142.53;85.13
4133;BME280;2080;51.038;7.008;2023-04-26T01:38:46;77037.13;;;-142.53;85.22
4133;BME280;2080;51.038;7.008;2023-04-26T01:41:14;77054.59;;;-142.53;85.25
4133;BME280;2080;51.038;7.008;2023-04-26T01:43:41;77058.50;;;-142.53;84.92
4133;BME280;2080;51.038;7.008;2023-04-26T01:46:07;77074.03;;;-142.53;85.63
4133;BME280;2080;51.038;7.008;2023-04-26T01:48:34;77058.50;;;-142.53;85.09
4133;BME280;2080;51.038;7.008;2023-04-26T01:50:59;77060.44;;;-142.53;85.09
4133;BME280;2080;51.038;7.008;2023-04-26T01:53:27;77052.66;;;-142.53;84.98
4133;BME280;2080;51.038;7.008;2023-04-26T01:55:59;77062.38;;;-142.53;85.80
4133;BME280;2080;51.038;7.008;2023-04-26T01:58:24;77066.25;;;-142.53;86.62
4133;BME280;2080;51.038;7.008;2023-04-26T02:00:49;77085.69;;;-142.53;86.67
4133;BME280;2080;51.038;7.008;2023-04-26T02:03:17;77062.38;;;-142.53;86.43
4133;BME280;2080;51.038;7.008;2023-04-26T02:05:42;77054.59;;;-142.53;85.89
4133;BME280;2080;51.038;7.008;2023-04-26T02:08:08;77042.94;;;-142.53;85.25
4133;BME280;2080;51.038;7.008;2023-04-26T02:10:33;77050.72;;;-142.53;85.04
4133;BME280;2080;51.038;7.008;2023-04-26T02:13:01;77058.50;;;-142.53;85.42
4133;BME280;2080;51.038;7.008;2023-04-26T02:15:26;77050.72;;;-142.53;85.53
4133;BME280;2080;51.038;7.008;2023-04-26T02:17:54;77058.50;;;-142.53;84.83
4133;BME280;2080;51.038;7.008;2023-04-26T02:20:22;77075.97;;;-142.53;85.24
4133;BME280;2080;51.038;7.008;2023-04-26T02:22:49;77072.09;;;-142.53;85.34
4133;BME280;2080;51.038;7.008;2023-04-26T02:25:17;77085.69;;;-142.53;85.06
4133;BME280;2080;51.038;7.008;2023-04-26T02:27:43;77085.69;;;-142.53;84.47
4133;BME280;2080;51.038;7.008;2023-04-26T02:30:09;77091.53;;;-142.53;84.85
4133;BME280;2080;51.038;7.008;2023-04-26T02:32:35;77089.56;;;-142.53;84.93
4133;BME280;2080;51.038;7.008;2023-04-26T02:35:02;77109.00;;;-142.53;85.31
4133;BME280;2080;51.038;7.008;2023-04-26T02:37:29;77109.00;;;-142.53;86.40
4133;BME280;2080;51.038;7.008;2023-04-26T02:39:54;77109.00;;;-142.53;85.65
4133;BME280;2080;51.038;7.008;2023-04-26T02:42:24;77089.56;;;-142.53;85.49
4133;BME280;2080;51.038;7.008;2023-04-26T02:44:54;77120.66;;;-142.53;86.02
4133;BME280;2080;51.038;7.008;2023-04-26T02:47:19;77186.72;;;-142.53;87.49
4133;BME280;2080;51.038;7.008;2023-04-26T02:49:45;77124.53;;;-142.53;85.81
4133;BME280;2080;51.038;7.008;2023-04-26T02:52:10;77124.53;;;-142.53;85.45
4133;BME280;2080;51.038;7.008;2023-04-26T02:54:36;77109.00;;;-142.53;85.34
4133;BME280;2080;51.038;7.008;2023-04-26T02:57:01;77112.88;;;-142.53;86.08
4133;BME280;2080;51.038;7.008;2023-04-26T02:59:28;77136.19;;;-142.53;85.88
4133;BME280;2080;51.038;7.008;2023-04-26T03:01:56;77145.91;;;-142.53;85.85
4133;BME280;2080;51.038;7.008;2023-04-26T03:04:21;77140.09;;;-142.53;87.00
4133;BME280;2080;51.038;7.008;2023-04-26T03:06:49;77128.44;;;-142.53;86.78
4133;BME280;2080;51.038;7.008;2023-04-26T03:09:17;77130.38;;;-142.53;86.01
4133;BME280;2080;51.038;7.008;2023-04-26T03:11:45;77147.84;;;-142.53;86.29
4133;BME280;2080;51.038;7.008;2023-04-26T03:14:10;77151.75;;;-142.53;86.89
4133;BME280;2080;51.038;7.008;2023-04-26T03:16:44;77143.97;;;-142.53;86.48
4133;BME280;2080;51.038;7.008;2023-04-26T03:19:09;77143.97;;;-142.53;86.51
4133;BME280;2080;51.038;7.008;2023-04-26T03:21:38;77124.53;;;-142.53;85.56
4133;BME280;2080;51.038;7.008;2023-04-26T03:24:03;77138.16;;;-142.53;85.72
4133;BME280;2080;51.038;7.008;2023-04-26T03:26:31;77149.81;;;-142.53;85.77
4133;BME280;2080;51.038;7.008;2023-04-26T03:29:01;77153.69;;;-142.53;85.99
4133;BME280;2080;51.038;7.008;2023-04-26T03:31:27;77217.81;;;-142.53;88.31
4133;BME280;2080;51.038;7.008;2023-04-26T03:33:57;77229.47;;;-142.53;89.53
4133;BME280;2080;51.038;7.008;2023-04-26T03:36:25;77190.59;;;-142.53;89.04
4133;BME280;2080;51.038;7.008;2023-04-26T03:38:53;77202.25;;;-142.53;89.12
4133;BME280;2080;51.038;7.008;2023-04-26T03:41:18;77217.81;;;-142.53;89.53
4133;BME280;2080;51.038;7.008;2023-04-26T03:43:43;77233.34;;;-142.53;91.09
4133;BME280;2080;51.038;7.008;2023-04-26T03:46:11;77229.47;;;-142.53;90.90
4133;BME280;2080;51.038;7.008;2023-04-26T03:48:39;77213.91;;;-142.53;90.83
4133;BME280;2080;51.038;7.008;2023-04-26T03:51:05;77227.50;;;-142.53;90.57
4133;BME280;2080;51.038;7.008;2023-04-26T03:53:30;77229.47;;;-142.53;90.34
4133;BME280;2080;51.038;7.008;2023-04-26T03:55:58;77225.56;;;-142.53;90.46
4133;BME280;2080;51.038;7.008;2023-04-26T03:58:26;77159.53;;;-142.53;88.29
4133;BME280;2080;51.038;7.008;2023-04-26T04:00:51;77235.28;;;-142.53;90.20
4133;BME280;2080;51.038;7.008;2023-04-26T04:03:20;77198.38;;;-142.53;89.45
4133;BME280;2080;51.038;7.008;2023-04-26T04:05:47;77202.25;;;-142.53;88.49
4133;BME280;2080;51.038;7.008;2023-04-26T04:08:13;77178.94;;;-142.53;87.90
4133;BME280;2080;51.038;7.008;2023-04-26T04:10:41;77182.81;;;-142.53;87.60
4133;BME280;2080;51.038;7.008;2023-04-26T04:13:14;77173.13;;;-142.53;87.97
4133;BME280;2080;51.038;7.008;2023-04-26T04:15:39;77171.16;;;-142.53;87.57
4133;BME280;2080;51.038;7.008;2023-04-26T04:18:04;77184.78;;;-142.53;88.43
4133;BME280;2080;51.038;7.008;2023-04-26T04:20:30;77314.94;;;-142.53;92.62
4133;BME280;2080;51.038;7.008;2023-04-26T04:22:55;77206.16;;;-142.53;89.21
4133;BME280;2080;51.038;7.008;2023-04-26T04:25:25;77173.13;;;-142.53;86.81
4133;BME280;2080;51.038;7.008;2023-04-26T04:27:51;77194.47;;;-142.53;87.78
4133;BME280;2080;51.038;7.008;2023-04-26T04:30:17;77182.81;;;-142.53;86.21
4133;BME280;2080;51.038;7.008;2023-04-26T04:32:42;77303.28;;;-142.53;90.15
4133;BME280;2080;51.038;7.008;2023-04-26T04:35:11;77188.66;;;-142.53;86.51
4133;BME280;2080;51.038;7.008;2023-04-26T04:37:39;77184.78;;;-142.53;86.70
4133;BME280;2080;51.038;7.008;2023-04-26T04:40:05;77163.41;;;-142.53;86.01
4133;BME280;2080;51.038;7.008;2023-04-26T04:42:35;77206.16;;;-142.53;87.42
4133;BME280;2080;51.038;7.008;2023-04-26T04:45:02;77177.00;;;-142.53;86.28
4133;BME280;2080;51.038;7.008;2023-04-26T04:47:29;77155.63;;;-142.53;85.32
4133;BME280;2080;51.038;7.008;2023-04-26T04:49:56;77145.91;;;-142.53;85.47
4133;BME280;2080;51.038;7.008;2023-04-26T04:52:23;77147.84;;;-142.53;85.02
4133;BME280;2080;51.038;7.008;2023-04-26T04:54:50;77124.53;;;-142.53;84.47
4133;BME280;2080;51.038;7.008;2023-04-26T04:57:20;77120.66;;;-142.53;84.16
4133;BME280;2080;51.038;7.008;2023-04-26T04:59:45;77101.22;;;-142.53;84.68
4133;BME280;2080;51.038;7.008;2023-04-26T05:02:11;77087.63;;;-142.53;83.12
4133;BME280;2080;51.038;7.008;2023-04-26T05:04:36;77085.69;;;-142.53;83.16
4133;BME280;2080;51.038;7.008;2023-04-26T05:07:03;77077.91;;;-142.53;82.64
4133;BME280;2080;51.038;7.008;2023-04-26T05:09:30;77072.09;;;-142.53;82.93
4133;BME280;2080;51.038;7.008;2023-04-26T05:11:58;77054.59;;;-142.53;82.03
4133;BME280;2080;51.038;7.008;2023-04-26T05:14:28;77178.94;;;-142.53;86.85
4133;BME280;2080;51.038;7.008;2023-04-26T05:16:54;77221.69;;;-142.53;90.38
4133;BME280;2080;51.038;7.008;2023-04-26T05:19:19;77186.72;;;-142.53;87.75
4133;BME280;2080;51.038;7.008;2023-04-26T05:21:45;77204.19;;;-142.53;89.48
4133;BME280;2080;51.038;7.008;2023-04-26T05:24:11;77035.19;;;-142.53;82.66
4133;BME280;2080;51.038;7.008;2023-04-26T05:26:36;76990.50;;;-142.53;80.80
4133;BME280;2080;51.038;7.008;2023-04-26T05:29:04;76996.31;;;-142.53;80.43
4133;BME280;2080;51.038;7.008;2023-04-26T05:31:29;76976.91;;;-142.53;80.18
4133;BME280;2080;51.038;7.008;2023-04-26T05:33:54;76953.59;;;-142.53;78.68
4133;BME280;2080;51.038;7.008;2023-04-26T05:36:20;76965.25;;;-142.53;79.09
4133;BME280;2080;51.038;7.008;2023-04-26T05:38:46;76957.47;;;-142.53;78.44
4133;BME280;2080;51.038;7.008;2023-04-26T05:41:14;76949.69;;;-142.53;77.37
4133;BME280;2080;51.038;7.008;2023-04-26T05:43:39;76916.69;;;-142.53;76.79
4133;BME280;2080;51.038;7.008;2023-04-26T05:46:05;76914.75;;;-142.53;76.65
4133;BME280;2080;51.038;7.008;2023-04-26T05:48:32;76899.19;;;-142.53;76.41
4133;BME280;2080;51.038;7.008;2023-04-26T05:51:00;76899.19;;;-142.53;74.85
4133;BME280;2080;51.038;7.008;2023-04-26T05:53:26;76868.13;;;-142.53;73.63
4133;BME280;2080;51.038;7.008;2023-04-26T05:55:51;77007.97;;;-142.53;77.27
4133;BME280;2080;51.038;7.008;2023-04-26T05:58:17;77044.91;;;-142.53;81.21
4133;BME280;2080;51.038;7.008;2023-04-26T06:00:44;77039.06;;;-142.53;82.10
4133;BME280;2080;51.038;7.008;2023-04-26T06:03:13;77029.34;;;-142.53;81.48
4133;BME280;2080;51.038;7.008;2023-04-26T06:05:40;77023.53;;;-142.53;81.29
4133;BME280;2080;51.038;7.008;2023-04-26T06:08:06;76998.28;;;-142.53;80.86
4133;BME280;2080;51.038;7.008;2023-04-26T06:10:32;76974.97;;;-142.53;79.98
4133;BME280;2080;51.038;7.008;2023-04-26T06:12:59;76957.47;;;-142.53;80.30
4133;BME280;2080;51.038;7.008;2023-04-26T06:15:25;76949.69;;;-142.53;80.04
4133;BME280;2080;51.038;7.008;2023-04-26T06:17:53;76930.28;;;-142.53;79.77
4133;BME280;2080;51.038;7.008;2023-04-26T06:20:19;76934.16;;;-142.53;79.14
4133;BME280;2080;51.038;7.008;2023-04-26T06:22:44;76914.75;;;-142.53;78.52
4133;BME280;2080;51.038;7.008;2023-04-26T06:25:10;76934.16;;;-142.53;77.53
4133;BME280;2080;51.038;7.008;2023-04-26T06:27:39;76949.69;;;-142.53;78.54
4133;BME280;2080;51.038;7.008;2023-04-26T06:30:06;76947.75;;;-142.53;78.92
4133;BME280;2080;51.038;7.008;2023-04-26T06:32:34;76924.44;;;-142.53;77.85
4133;BME280;2080;51.038;7.008;2023-04-26T06:35:03;76905.03;;;-142.53;78.62
4133;BME280;2080;51.038;7.008;2023-04-26T06:37:29;76875.88;;;-142.53;77.96
4133;BME280;2080;51.038;7.008;2023-04-26T06:39:56;76835.09;;;-142.53;78.06
4133;BME280;2080;51.038;7.008;2023-04-26T06:42:22;76829.25;;;-142.53;76.71
4133;BME280;2080;51.038;7.008;2023-04-26T06:44:47;76809.84;;;-142.53;75.84
4133;BME280;2080;51.038;7.008;2023-04-26T06:47:13;76673.84;;;-142.53;70.20
4133;BME280;2080;51.038;7.008;2023-04-26T06:49:40;76603.94;;;-142.53;67.00
4133;BME280;2080;51.038;7.008;2023-04-26T06:52:06;76615.59;;;-142.53;65.98
4133;BME280;2080;51.038;7.008;2023-04-26T06:54:34;76603.94;;;-142.53;64.57
4133;BME280;2080;51.038;7.008;2023-04-26T06:57:02;76565.09;;;-142.53;63.67
4133;BME280;2080;51.038;7.008;2023-04-26T06:59:27;76576.72;;;-142.53;62.36
4133;BME280;2080;51.038;7.008;2023-04-26T07:01:57;76534.00;;;-142.53;62.96
4133;BME280;2080;51.038;7.008;2023-04-26T07:04:23;76502.91;;;-142.53;61.22
4133;BME280;2080;51.038;7.008;2023-04-26T07:06:48;76466.03;;;-142.53;59.94
4133;BME280;2080;51.038;7.008;2023-04-26T07:09:16;76436.88;;;-142.53;58.76
4133;BME280;2080;51.038;7.008;2023-04-26T07:11:41;76390.28;;;-142.53;57.83
4133;BME280;2080;51.038;7.008;2023-04-26T07:14:09;76378.63;;;-142.53;57.32
4133;BME280;2080;51.038;7.008;2023-04-26T07:16:35;76339.75;;;-142.53;56.63
4133;BME280;2080;51.038;7.008;2023-04-26T07:19:01;76339.75;;;-142.53;54.17
4133;BME280;2080;51.038;7.008;2023-04-26T07:21:30;76320.34;;;-142.53;53.31
4133;BME280;2080;51.038;7.008;2023-04-26T07:23:56;76316.47;;;-142.53;52.99
4133;BME280;2080;51.038;7.008;2023-04-26T07:26:22;76289.28;;;-142.53;51.99
4133;BME280;2080;51.038;7.008;2023-04-26T07:28:50;76339.75;;;-142.53;51.35
4133;BME280;2080;51.038;7.008;2023-04-26T07:31:15;76297.03;;;-142.53;50.84
4133;BME280;2080;51.038;7.008;2023-04-26T07:33:41;76289.28;;;-142.53;51.31
4133;BME280;2080;51.038;7.008;2023-04-26T07:36:09;76223.22;;;-142.53;49.90
4133;BME280;2080;51.038;7.008;2023-04-26T07:38:37;76265.97;;;-142.53;49.58
4133;BME280;2080;51.038;7.008;2023-04-26T07:41:02;76269.84;;;-142.53;49.69
4133;BME280;2080;51.038;7.008;2023-04-26T07:43:29;76199.94;;;-142.53;49.13
4133;BME280;2080;51.038;7.008;2023-04-26T07:45:58;76190.22;;;-142.53;47.52
4133;BME280;2080;51.038;7.008;2023-04-26T07:48:24;76192.16;;;-142.53;47.67
4133;BME280;2080;51.038;7.008;2023-04-26T07:50:49;76145.53;;;-142.53;47.29
4133;BME280;2080;51.038;7.008;2023-04-26T07:53:18;76124.19;;;-142.53;46.43
4133;BME280;2080;51.038;7.008;2023-04-26T07:55:43;76143.59;;;-142.53;44.19
4133;BME280;2080;51.038;7.008;2023-04-26T07:58:11;76184.38;;;-142.53;44.30
4133;BME280;2080;51.038;7.008;2023-04-26T08:00:39;76211.56;;;-142.53;45.39
4133;BME280;2080;51.038;7.008;2023-04-26T08:03:05;76130.00;;;-142.53;45.06
4133;BME280;2080;51.038;7.008;2023-04-26T08:05:30;76060.09;;;-142.53;44.36
4133;BME280;2080;51.038;7.008;2023-04-26T08:07:58;76054.25;;;-142.53;43.81
4133;BME280;2080;51.038;7.008;2023-04-26T08:10:25;76071.75;;;-142.53;41.60
4133;BME280;2080;51.038;7.008;2023-04-26T08:12:52;76029.00;;;-142.53;41.21
4133;BME280;2080;51.038;7.008;2023-04-26T08:15:22;76036.78;;;-142.53;40.53
4133;BME280;2080;51.038;7.008;2023-04-26T08:17:50;76003.75;;;-142.53;40.72
4133;BME280;2080;51.038;7.008;2023-04-26T08:20:17;76087.28;;;-142.53;40.72
4133;BME280;2080;51.038;7.008;2023-04-26T08:22:42;76192.16;;;-142.53;40.94
4133;BME280;2080;51.038;7.008;2023-04-26T08:25:10;76227.13;;;-142.53;42.11
4133;BME280;2080;51.038;7.008;2023-04-26T08:27:36;76186.31;;;-142.53;41.22
4133;BME280;2080;51.038;7.008;2023-04-26T08:30:02;76182.44;;;-142.53;40.54
4133;BME280;2080;51.038;7.008;2023-04-26T08:32:27;76207.69;;;-142.53;40.26
4133;BME280;2080;51.038;7.008;2023-04-26T08:34:52;76227.13;;;-142.53;39.96
4133;BME280;2080;51.038;7.008;2023-04-26T08:37:18;76231.00;;;-142.53;39.21
4133;BME280;2080;51.038;7.008;2023-04-26T08:39:43;76164.97;;;-142.53;39.93
4133;BME280;2080;51.038;7.008;2023-04-26T08:42:13;76058.16;;;-142.53;40.80
4133;BME280;2080;51.038;7.008;2023-04-26T08:44:43;76036.78;;;-142.53;40.39
4133;BME280;2080;51.038;7.008;2023-04-26T08:47:15;76025.13;;;-142.53;40.37
4133;BME280;2080;51.038;7.008;2023-04-26T08:49:46;75951.31;;;-142.53;39.44
4133;BME280;2080;51.038;7.008;2023-04-26T08:52:27;75916.38;;;-142.53;37.53
4133;BME280;2080;51.038;7.008;2023-04-26T08:54:53;75962.97;;;-142.53;38.04
4133;BME280;2080;51.038;7.008;2023-04-26T08:57:24;75908.59;;;-142.53;37.88
4133;BME280;2080;51.038;7.008;2023-04-26T08:59:50;75920.25;;;-142.53;36.98
4133;BME280;2080;51.038;7.008;2023-04-26T09:02:18;75939.69;;;-142.53;37.61
4133;BME280;2080;51.038;7.008;2023-04-26T09:04:48;75912.50;;;-142.53;37.88
4133;BME280;2080;51.038;7.008;2023-04-26T09:07:21;75873.66;;;-142.53;37.24
4133;BME280;2080;51.038;7.008;2023-04-26T09:09:50;75858.09;;;-142.53;37.15
4133;BME280;2080;51.038;7.008;2023-04-26T09:12:19;75805.69;;;-142.53;37.17
4133;BME280;2080;51.038;7.008;2023-04-26T09:14:46;75815.38;;;-142.53;36.08
4133;BME280;2080;51.038;7.008;2023-04-26T09:17:32;75881.41;;;-142.53;35.79
4133;BME280;2080;51.038;7.008;2023-04-26T09:19:59;75887.25;;;-142.53;36.47
4133;BME280;2080;51.038;7.008;2023-04-26T09:22:35;75830.91;;;-142.53;36.36
4133;BME280;2080;51.038;7.008;2023-04-26T09:25:02;75762.94;;;-142.53;36.28
4133;BME280;2080;51.038;7.008;2023-04-26T09:27:39;75749.34;;;-142.53;34.81
4133;BME280;2080;51.038;7.008;2023-04-26T09:35:22;75830.91;;;-142.53;36.05
4133;BME280;2080;51.038;7.008;2023-04-26T09:40:22;75844.50;;;-142.53;34.99
4133;BME280;2080;51.038;7.008;2023-04-26T09:42:56;75889.19;;;-142.53;34.40
4133;BME280;2080;51.038;7.008;2023-04-26T09:45:22;75906.66;;;-142.53;34.48
4133;BME280;2080;51.038;7.008;2023-04-26T09:47:48;75951.31;;;-142.53;35.22
4133;BME280;2080;51.038;7.008;2023-04-26T09:50:24;75881.41;;;-142.53;34.86
4133;BME280;2080;51.038;7.008;2023-04-26T09:52:50;75863.94;;;-142.53;34.42
4133;BME280;2080;51.038;7.008;2023-04-26T09:55:25;75827.03;;;-142.53;35.18
4133;BME280;2080;51.038;7.008;2023-04-26T09:57:51;75900.84;;;-142.53;34.73
4133;BME280;2080;51.038;7.008;2023-04-26T10:00:20;75943.56;;;-142.53;34.86
4133;BME280;2080;51.038;7.008;2023-04-26T10:02:48;75978.50;;;-142.53;35.70
4133;BME280;2080;51.038;7.008;2023-04-26T10:05:14;75939.69;;;-142.53;35.38
4133;BME280;2080;51.038;7.008;2023-04-26T10:07:39;75893.06;;;-142.53;34.97
4133;BME280;2080;51.038;7.008;2023-04-26T10:10:06;75889.19;;;-142.53;34.37
4133;BME280;2080;51.038;7.008;2023-04-26T10:12:35;75828.97;;;-142.53;34.51
4133;BME280;2080;51.038;7.008;2023-04-26T10:15:04;75776.53;;;-142.53;33.85
4133;BME280;2080;51.038;7.008;2023-04-26T10:17:33;75766.84;;;-142.53;33.54
4133;BME280;2080;51.038;7.008;2023-04-26T10:20:00;75706.63;;;-142.53;32.64
4133;BME280;2080;51.038;7.008;2023-04-26T10:22:36;75710.53;;;-142.53;32.91
4133;BME280;2080;51.038;7.008;2023-04-26T10:25:07;75632.84;;;-142.53;33.25
4133;BME280;2080;51.038;7.008;2023-04-26T10:30:12;75679.44;;;-142.53;32.26
4133;BME280;2080;51.038;7.008;2023-04-26T10:35:25;75679.44;;;-142.53;32.49
4133;BME280;2080;51.038;7.008;2023-04-26T10:40:27;75667.78;;;-142.53;32.29
4133;BME280;2080;51.038;7.008;2023-04-26T10:45:45;75693.03;;;-142.53;32.18
4133;BME280;2080;51.038;7.008;2023-04-26T10:58:50;75609.53;;;-142.53;31.55
4133;BME280;2080;51.038;7.008;2023-04-26T11:01:31;75642.56;;;-142.53;31.05
4133;BME280;2080;51.038;7.008;2023-04-26T11:06:24;75564.88;;;-142.53;30.69
4133;BME280;2080;51.038;7.008;2023-04-26T11:08:53;75473.59;;;-142.53;30.99
4133;BME280;2080;51.038;7.008;2023-04-26T11:11:18;75487.19;;;-142.53;29.40
4133;BME280;2080;51.038;7.008;2023-04-26T11:13:46;75388.16;;;-142.53;29.48
4133;BME280;2080;51.038;7.008;2023-04-26T11:16:16;75361.00;;;-142.53;29.76
4133;BME280;2080;51.038;7.008;2023-04-26T11:18:45;75425.06;;;-142.53;29.51
4133;BME280;2080;51.038;7.008;2023-04-26T11:21:11;75392.06;;;-142.53;29.31
4133;BME280;2080;51.038;7.008;2023-04-26T11:23:39;75333.81;;;-142.53;29.39
4133;BME280;2080;51.038;7.008;2023-04-26T11:26:05;75279.44;;;-142.53;28.82
4133;BME280;2080;51.038;7.008;2023-04-26T11:28:33;75238.66;;;-142.53;28.50
4133;BME280;2080;51.038;7.008;2023-04-26T11:31:02;75364.88;;;-142.53;28.92
4133;BME280;2080;51.038;7.008;2023-04-26T11:33:28;75361.00;;;-142.53;28.75
4133;BME280;2080;51.038;7.008;2023-04-26T11:35:54;75322.16;;;-142.53;28.43
4133;BME280;2080;51.038;7.008;2023-04-26T11:38:27;75277.50;;;-142.53;28.04
4133;BME280;2080;51.038;7.008;2023-04-26T11:40:58;75256.13;;;-142.53;28.50
4133;BME280;2080;51.038;7.008;2023-04-26T11:46:02;75260.00;;;-142.53;28.72
4133;BME280;2080;51.038;7.008;2023-04-26T11:48:29;75186.22;;;-142.53;28.12
4133;BME280;2080;51.038;7.008;2023-04-26T11:50:59;75465.84;;;-142.53;28.39
4133;BME280;2080;51.038;7.008;2023-04-26T11:53:39;75493.03;;;-142.53;28.70
4133;BME280;2080;51.038;7.008;2023-04-26T11:56:18;75597.88;;;-142.53;29.52
4133;BME280;2080;51.038;7.008;2023-04-26T11:58:48;75531.88;;;-142.53;29.74
4133;BME280;2080;51.038;7.008;2023-04-26T12:01:26;75479.44;;;-142.53;29.59
4133;BME280;2080;51.038;7.008;2023-04-26T12:03:56;75407.59;;;-142.53;29.15
4133;BME280;2080;51.038;7.008;2023-04-26T12:06:39;75442.53;;;-142.53;28.76
4133;BME280;2080;51.038;7.008;2023-04-26T12:09:05;75465.84;;;-142.53;29.04
4133;BME280;2080;51.038;7.008;2023-04-26T12:11:35;75469.72;;;-142.53;28.58
4133;BME280;2080;51.038;7.008;2023-04-26T12:14:00;75594.00;;;-142.53;29.21
4133;BME280;2080;51.038;7.008;2023-04-26T12:16:28;75564.88;;;-142.53;29.11
4133;BME280;2080;51.038;7.008;2023-04-26T12:18:55;75541.56;;;-142.53;29.40
4133;BME280;2080;51.038;7.008;2023-04-26T12:21:23;75557.09;;;-142.53;29.72
4133;BME280;2080;51.038;7.008;2023-04-26T12:23:51;75508.56;;;-142.53;29.54
4133;BME280;2080;51.038;7.008;2023-04-26T12:26:17;75473.59;;;-142.53;29.10
4133;BME280;2080;51.038;7.008;2023-04-26T12:28:44;75473.59;;;-142.53;29.98
4133;BME280;2080;51.038;7.008;2023-04-26T12:31:10;75463.91;;;-142.53;29.56
4133;BME280;2080;51.038;7.008;2023-04-26T12:33:36;75547.41;;;-142.53;29.02
4133;BME280;2080;51.038;7.008;2023-04-26T12:36:08;75642.56;;;-142.53;29.10
4133;BME280;2080;51.038;7.008;2023-04-26T12:38:33;75578.47;;;-142.53;28.70
4133;BME280;2080;51.038;7.008;2023-04-26T12:40:59;75570.69;;;-142.53;29.11
4133;BME280;2080;51.038;7.008;2023-04-26T12:43:25;75512.44;;;-142.53;28.73
4133;BME280;2080;51.038;7.008;2023-04-26T12:45:53;75428.94;;;-142.53;29.18
4133;BME280;2080;51.038;7.008;2023-04-26T12:48:18;75527.97;;;-142.53;29.52
4133;BME280;2080;51.038;7.008;2023-04-26T12:50:44;75549.34;;;-142.53;29.90
4133;BME280;2080;51.038;7.008;2023-04-26T12:53:10;75493.03;;;-142.53;29.26
4133;BME280;2080;51.038;7.008;2023-04-26T12:55:37;75469.72;;;-142.53;29.13
4133;BME280;2080;51.038;7.008;2023-04-26T12:58:05;75450.31;;;-142.53;28.88
4133;BME280;2080;51.038;7.008;2023-04-26T13:00:30;75461.97;;;-142.53;29.65
4133;BME280;2080;51.038;7.008;2023-04-26T13:02:56;75454.19;;;-142.53;29.68
4133;BME280;2080;51.038;7.008;2023-04-26T13:05:22;75417.28;;;-142.53;29.54
4133;BME280;2080;51.038;7.008;2023-04-26T13:07:49;75394.00;;;-142.53;28.95
4133;BME280;2080;51.038;7.008;2023-04-26T13:10:15;75384.28;;;-142.53;28.98
4133;BME280;2080;51.038;7.008;2023-04-26T13:12:41;75446.44;;;-142.53;29.17
4133;BME280;2080;51.038;7.008;2023-04-26T13:15:07;75574.59;;;-142.53;28.93
4133;BME280;2080;51.038;7.008;2023-04-26T13:17:35;75508.56;;;-142.53;29.03
4133;BME280;2080;51.038;7.008;2023-04-26T13:20:01;75469.72;;;-142.53;29.03
4133;BME280;2080;51.038;7.008;2023-04-26T13:22:28;75469.72;;;-142.53;28.45
4133;BME280;2080;51.038;7.008;2023-04-26T13:24:53;75450.31;;;-142.53;29.25
4133;BME280;2080;51.038;7.008;2023-04-26T13:27:21;75582.34;;;-142.53;28.97
4133;BME280;2080;51.038;7.008;2023-04-26T13:29:46;75568.75;;;-142.53;29.62
4133;BME280;2080;51.038;7.008;2023-04-26T13:32:16;75832.88;;;-142.53;31.10
4133;BME280;2080;51.038;7.008;2023-04-26T13:34:41;75677.50;;;-142.53;29.86